sensor_id;sensor_type;location;lat;lon;timestamp;P1;durP1;ratioP1;P2;durP2;ratioP2
64061;SDS011;50308;47.438;-1.528;2023-08-06T12:53:58;118.55;;;12.18;;
64061;SDS011;50308;47.438;-1.528;2023-08-06T12:56:24;78.32;;;7.10;;
64061;SDS011;50308;47.438;-1.528;2023-08-06T12:58:50;40.95;;;5.30;;
64061;SDS011;50308;47.438;-1.528;2023-08-06T13:01:15;13.82;;;2.50;;
64061;SDS011;50308;47.438;-1.528;2023-08-06T13:03:41;9.00;;;1.77;;
64061;SDS011;50308;47.438;-1.528;2023-08-06T13:06:07;21.98;;;2.33;;
64061;SDS011;50308;47.438;-1.528;2023-08-06T13:08:34;4.07;;;1.10;;
64061;SDS011;50308;47.438;-1.528;2023-08-06T13:11:00;3.72;;;1.00;;
64061;SDS011;50308;47.438;-1.528;2023-08-06T13:13:26;3.35;;;1.20;;
64061;SDS011;50308;47.438;-1.528;2023-08-06T13:15:52;14.60;;;1.67;;
64061;SDS011;50308;47.438;-1.528;2023-08-06T13:18:18;3.22;;;1.25;;
64061;SDS011;50308;47.438;-1.528;2023-08-06T13:20:43;2.72;;;1.30;;
64061;SDS011;50308;47.438;-1.528;2023-08-06T13:23:09;4.32;;;1.20;;
64061;SDS011;50308;47.438;-1.528;2023-08-06T13:25:35;7.97;;;1.40;;
64061;SDS011;50308;47.438;-1.528;2023-08-06T13:28:02;3.28;;;1.33;;
64061;SDS011;50308;47.438;-1.528;2023-08-06T13:30:28;5.55;;;1.55;;
64061;SDS011;50308;47.438;-1.528;2023-08-06T13:32:54;2.80;;;1.45;;
64061;SDS011;50308;47.438;-1.528;2023-08-06T13:35:21;4.90;;;1.67;;
64061;SDS011;50308;47.438;-1.528;2023-08-06T13:37:48;5.57;;;1.58;;
64061;SDS011;50308;47.438;-1.528;2023-08-06T13:40:13;5.75;;;1.42;;
64061;SDS011;50308;47.438;-1.528;2023-08-06T13:42:39;3.75;;;1.83;;
64061;SDS011;50308;47.438;-1.528;2023-08-06T13:45:05;2.80;;;1.40;;
64061;SDS011;50308;47.438;-1.528;2023-08-06T13:47:32;4.78;;;1.48;;
64061;SDS011;50308;47.438;-1.528;2023-08-06T13:49:58;5.97;;;1.85;;
64061;SDS011;50308;47.438;-1.528;2023-08-06T13:52:25;4.15;;;1.15;;
64061;SDS011;50308;47.438;-1.528;2023-08-06T13:54:51;6.13;;;1.30;;
64061;SDS011;50308;47.438;-1.528;2023-08-06T13:57:17;5.85;;;1.60;;
64061;SDS011;50308;47.438;-1.528;2023-08-06T13:59:43;5.65;;;1.73;;
64061;SDS011;50308;47.438;-1.528;2023-08-06T14:02:09;6.05;;;2.17;;
64061;SDS011;50308;47.438;-1.528;2023-08-06T14:04:35;3.65;;;1.65;;
64061;SDS011;50308;47.438;-1.528;2023-08-06T14:07:02;8.65;;;2.42;;
64061;SDS011;50308;47.438;-1.528;2023-08-06T14:09:28;5.40;;;1.60;;
64061;SDS011;50308;47.438;-1.528;2023-08-06T14:11:54;6.18;;;2.00;;
64061;SDS011;50308;47.438;-1.528;2023-08-06T14:14:20;7.80;;;2.28;;
64061;SDS011;50308;47.438;-1.528;2023-08-06T14:16:51;6.57;;;2.03;;
64061;SDS011;50308;47.438;-1.528;2023-08-06T14:19:19;7.15;;;2.08;;
64061;SDS011;50308;47.438;-1.528;2023-08-06T14:21:45;8.35;;;2.30;;
64061;SDS011;50308;47.438;-1.528;2023-08-06T14:24:11;8.05;;;2.25;;
64061;SDS011;50308;47.438;-1.528;2023-08-06T14:26:37;9.32;;;2.20;;
64061;SDS011;50308;47.438;-1.528;2023-08-06T14:29:03;7.03;;;2.08;;
64061;SDS011;50308;47.438;-1.528;2023-08-06T14:31:29;10.52;;;2.70;;
64061;SDS011;50308;47.438;-1.528;2023-08-06T14:33:55;7.60;;;2.03;;
64061;SDS011;50308;47.438;-1.528;2023-08-06T14:36:21;7.95;;;3.67;;
64061;SDS011;50308;47.438;-1.528;2023-08-06T14:38:47;5.82;;;2.55;;
64061;SDS011;50308;47.438;-1.528;2023-08-06T14:41:12;7.18;;;2.60;;
64061;SDS011;50308;47.438;-1.528;2023-08-06T14:43:38;9.05;;;2.28;;
64061;SDS011;50308;47.438;-1.528;2023-08-06T14:46:04;7.38;;;2.08;;
64061;SDS011;50308;47.438;-1.528;2023-08-06T14:48:30;6.03;;;2.58;;
64061;SDS011;50308;47.438;-1.528;2023-08-06T14:50:56;10.57;;;2.70;;
64061;SDS011;50308;47.438;-1.528;2023-08-06T14:53:21;10.68;;;2.30;;
64061;SDS011;50308;47.438;-1.528;2023-08-06T14:55:47;11.63;;;2.53;;
64061;SDS011;50308;47.438;-1.528;2023-08-06T14:58:13;5.90;;;2.05;;
64061;SDS011;50308;47.438;-1.528;2023-08-06T15:00:39;7.22;;;1.70;;
64061;SDS011;50308;47.438;-1.528;2023-08-06T15:03:05;7.38;;;1.98;;
64061;SDS011;50308;47.438;-1.528;2023-08-06T15:05:30;6.85;;;1.80;;
64061;SDS011;50308;47.438;-1.528;2023-08-06T15:07:56;8.68;;;2.05;;
64061;SDS011;50308;47.438;-1.528;2023-08-06T15:10:22;7.45;;;2.28;;
64061;SDS011;50308;47.438;-1.528;2023-08-06T15:12:48;8.38;;;2.38;;
64061;SDS011;50308;47.438;-1.528;2023-08-06T15:15:13;6.40;;;1.80;;
64061;SDS011;50308;47.438;-1.528;2023-08-06T15:17:39;14.55;;;2.50;;
64061;SDS011;50308;47.438;-1.528;2023-08-06T15:20:05;5.20;;;2.00;;
64061;SDS011;50308;47.438;-1.528;2023-08-06T15:22:32;9.82;;;2.50;;
64061;SDS011;50308;47.438;-1.528;2023-08-06T15:24:59;10.57;;;2.78;;
64061;SDS011;50308;47.438;-1.528;2023-08-06T15:27:25;7.35;;;2.65;;
64061;SDS011;50308;47.438;-1.528;2023-08-06T15:29:51;7.93;;;2.50;;
64061;SDS011;50308;47.438;-1.528;2023-08-06T15:32:17;9.57;;;2.42;;
64061;SDS011;50308;47.438;-1.528;2023-08-06T15:34:43;9.25;;;2.80;;
64061;SDS011;50308;47.438;-1.528;2023-08-06T15:37:08;5.53;;;2.10;;
64061;SDS011;50308;47.438;-1.528;2023-08-06T15:39:34;8.60;;;2.83;;
64061;SDS011;50308;47.438;-1.528;2023-08-06T15:42:00;7.22;;;2.35;;
64061;SDS011;50308;47.438;-1.528;2023-08-06T15:44:25;7.07;;;2.30;;
64061;SDS011;50308;47.438;-1.528;2023-08-06T15:46:51;10.93;;;2.00;;
64061;SDS011;50308;47.438;-1.528;2023-08-06T15:49:17;8.13;;;2.40;;
64061;SDS011;50308;47.438;-1.528;2023-08-06T15:51:42;5.32;;;2.20;;
64061;SDS011;50308;47.438;-1.528;2023-08-06T15:54:08;10.30;;;2.50;;
64061;SDS011;50308;47.438;-1.528;2023-08-06T15:56:34;11.80;;;3.67;;
64061;SDS011;50308;47.438;-1.528;2023-08-06T15:59:20;7.07;;;2.60;;
64061;SDS011;50308;47.438;-1.528;2023-08-06T16:01:46;8.13;;;2.53;;
64061;SDS011;50308;47.438;-1.528;2023-08-06T16:04:12;12.13;;;2.78;;
64061;SDS011;50308;47.438;-1.528;2023-08-06T16:06:37;15.27;;;3.78;;
64061;SDS011;50308;47.438;-1.528;2023-08-06T16:09:03;8.68;;;2.65;;
64061;SDS011;50308;47.438;-1.528;2023-08-06T16:11:28;8.60;;;2.33;;
64061;SDS011;50308;47.438;-1.528;2023-08-06T16:13:54;9.95;;;2.95;;
64061;SDS011;50308;47.438;-1.528;2023-08-06T16:16:20;8.85;;;2.75;;
64061;SDS011;50308;47.438;-1.528;2023-08-06T16:18:45;8.77;;;2.58;;
64061;SDS011;50308;47.438;-1.528;2023-08-06T16:21:11;8.35;;;3.05;;
64061;SDS011;50308;47.438;-1.528;2023-08-06T16:23:37;8.10;;;2.42;;
64061;SDS011;50308;47.438;-1.528;2023-08-06T16:26:03;7.80;;;2.53;;
64061;SDS011;50308;47.438;-1.528;2023-08-06T16:28:29;8.73;;;2.40;;
64061;SDS011;50308;47.438;-1.528;2023-08-06T16:30:54;6.13;;;2.53;;
64061;SDS011;50308;47.438;-1.528;2023-08-06T16:33:20;7.38;;;2.33;;
64061;SDS011;50308;47.438;-1.528;2023-08-06T16:35:46;6.93;;;2.38;;
64061;SDS011;50308;47.438;-1.528;2023-08-06T16:38:12;9.85;;;2.33;;
64061;SDS011;50308;47.438;-1.528;2023-08-06T16:40:40;5.43;;;2.03;;
64061;SDS011;50308;47.438;-1.528;2023-08-06T16:43:06;6.43;;;2.45;;
64061;SDS011;50308;47.438;-1.528;2023-08-06T16:45:31;7.80;;;2.17;;
64061;SDS011;50308;47.438;-1.528;2023-08-06T16:48:02;7.53;;;2.20;;
64061;SDS011;50308;47.438;-1.528;2023-08-06T16:50:29;8.13;;;2.40;;
64061;SDS011;50308;47.438;-1.528;2023-08-06T16:52:55;8.55;;;2.25;;
64061;SDS011;50308;47.438;-1.528;2023-08-06T16:55:22;8.68;;;2.58;;
64061;SDS011;50308;47.438;-1.528;2023-08-06T16:57:47;6.32;;;2.22;;
64061;SDS011;50308;47.438;-1.528;2023-08-06T17:00:13;8.18;;;1.80;;
64061;SDS011;50308;47.438;-1.528;2023-08-06T17:02:39;5.35;;;1.90;;
64061;SDS011;50308;47.438;-1.528;2023-08-06T17:05:05;9.55;;;2.70;;
64061;SDS011;50308;47.438;-1.528;2023-08-06T17:07:31;7.43;;;2.42;;
64061;SDS011;50308;47.438;-1.528;2023-08-06T17:09:56;5.82;;;2.10;;
64061;SDS011;50308;47.438;-1.528;2023-08-06T17:12:22;6.00;;;2.00;;
64061;SDS011;50308;47.438;-1.528;2023-08-06T17:14:48;5.72;;;2.13;;
64061;SDS011;50308;47.438;-1.528;2023-08-06T17:17:14;8.10;;;2.22;;
64061;SDS011;50308;47.438;-1.528;2023-08-06T17:19:41;8.35;;;2.00;;
64061;SDS011;50308;47.438;-1.528;2023-08-06T17:22:08;7.03;;;2.10;;
64061;SDS011;50308;47.438;-1.528;2023-08-06T17:24:34;8.05;;;1.95;;
64061;SDS011;50308;47.438;-1.528;2023-08-06T17:27:00;7.05;;;2.60;;
64061;SDS011;50308;47.438;-1.528;2023-08-06T17:29:26;6.00;;;2.17;;
64061;SDS011;50308;47.438;-1.528;2023-08-06T17:31:52;8.55;;;2.13;;
64061;SDS011;50308;47.438;-1.528;2023-08-06T17:34:18;8.27;;;1.95;;
64061;SDS011;50308;47.438;-1.528;2023-08-06T17:36:44;9.85;;;2.83;;
64061;SDS011;50308;47.438;-1.528;2023-08-06T17:39:09;6.32;;;1.98;;
64061;SDS011;50308;47.438;-1.528;2023-08-06T17:41:35;4.85;;;1.75;;
64061;SDS011;50308;47.438;-1.528;2023-08-06T17:44:00;9.13;;;2.17;;
64061;SDS011;50308;47.438;-1.528;2023-08-06T17:46:27;6.55;;;2.15;;
64061;SDS011;50308;47.438;-1.528;2023-08-06T17:48:53;5.63;;;2.00;;
64061;SDS011;50308;47.438;-1.528;2023-08-06T17:51:20;4.95;;;2.22;;
64061;SDS011;50308;47.438;-1.528;2023-08-06T17:53:46;8.40;;;2.30;;
64061;SDS011;50308;47.438;-1.528;2023-08-06T17:56:12;4.82;;;2.22;;
64061;SDS011;50308;47.438;-1.528;2023-08-06T17:58:37;6.50;;;2.05;;
64061;SDS011;50308;47.438;-1.528;2023-08-06T18:01:03;8.40;;;2.40;;
64061;SDS011;50308;47.438;-1.528;2023-08-06T18:03:29;4.05;;;1.85;;
64061;SDS011;50308;47.438;-1.528;2023-08-06T18:05:57;6.45;;;2.17;;
64061;SDS011;50308;47.438;-1.528;2023-08-06T18:08:24;3.35;;;1.80;;
64061;SDS011;50308;47.438;-1.528;2023-08-06T18:10:50;7.25;;;1.80;;
64061;SDS011;50308;47.438;-1.528;2023-08-06T18:13:16;4.65;;;2.05;;
64061;SDS011;50308;47.438;-1.528;2023-08-06T18:15:42;4.80;;;1.83;;
64061;SDS011;50308;47.438;-1.528;2023-08-06T18:18:08;8.90;;;1.98;;
64061;SDS011;50308;47.438;-1.528;2023-08-06T18:20:36;8.25;;;2.25;;
64061;SDS011;50308;47.438;-1.528;2023-08-06T18:23:02;6.80;;;2.10;;
64061;SDS011;50308;47.438;-1.528;2023-08-06T18:25:29;6.15;;;1.88;;
64061;SDS011;50308;47.438;-1.528;2023-08-06T18:27:55;10.35;;;2.10;;
64061;SDS011;50308;47.438;-1.528;2023-08-06T18:30:21;5.32;;;1.95;;
64061;SDS011;50308;47.438;-1.528;2023-08-06T18:32:47;6.10;;;1.98;;
64061;SDS011;50308;47.438;-1.528;2023-08-06T18:35:13;8.25;;;2.40;;
64061;SDS011;50308;47.438;-1.528;2023-08-06T18:37:38;4.53;;;1.70;;
64061;SDS011;50308;47.438;-1.528;2023-08-06T18:40:07;4.70;;;1.70;;
64061;SDS011;50308;47.438;-1.528;2023-08-06T18:42:34;5.30;;;1.70;;
64061;SDS011;50308;47.438;-1.528;2023-08-06T18:45:00;6.43;;;1.90;;
64061;SDS011;50308;47.438;-1.528;2023-08-06T18:47:26;6.18;;;1.75;;
64061;SDS011;50308;47.438;-1.528;2023-08-06T18:49:53;7.10;;;1.92;;
64061;SDS011;50308;47.438;-1.528;2023-08-06T18:52:19;6.15;;;1.80;;
64061;SDS011;50308;47.438;-1.528;2023-08-06T18:54:45;5.93;;;1.80;;
64061;SDS011;50308;47.438;-1.528;2023-08-06T18:57:10;3.90;;;1.67;;
64061;SDS011;50308;47.438;-1.528;2023-08-06T18:59:36;6.65;;;2.00;;
64061;SDS011;50308;47.438;-1.528;2023-08-06T19:02:02;5.90;;;1.88;;
64061;SDS011;50308;47.438;-1.528;2023-08-06T19:04:28;6.38;;;1.70;;
64061;SDS011;50308;47.438;-1.528;2023-08-06T19:06:53;7.18;;;1.73;;
64061;SDS011;50308;47.438;-1.528;2023-08-06T19:09:19;4.28;;;1.88;;
64061;SDS011;50308;47.438;-1.528;2023-08-06T19:11:46;5.68;;;1.98;;
64061;SDS011;50308;47.438;-1.528;2023-08-06T19:14:12;4.97;;;1.67;;
64061;SDS011;50308;47.438;-1.528;2023-08-06T19:16:38;4.72;;;2.13;;
64061;SDS011;50308;47.438;-1.528;2023-08-06T19:19:11;4.25;;;1.70;;
64061;SDS011;50308;47.438;-1.528;2023-08-06T19:21:37;5.85;;;1.90;;
64061;SDS011;50308;47.438;-1.528;2023-08-06T19:24:03;6.50;;;1.77;;
64061;SDS011;50308;47.438;-1.528;2023-08-06T19:26:28;3.63;;;1.63;;
64061;SDS011;50308;47.438;-1.528;2023-08-06T19:28:54;6.72;;;1.52;;
64061;SDS011;50308;47.438;-1.528;2023-08-06T19:31:21;4.28;;;1.45;;
64061;SDS011;50308;47.438;-1.528;2023-08-06T19:33:46;7.30;;;1.83;;
64061;SDS011;50308;47.438;-1.528;2023-08-06T19:36:12;7.20;;;1.73;;
64061;SDS011;50308;47.438;-1.528;2023-08-06T19:38:39;3.75;;;1.48;;
64061;SDS011;50308;47.438;-1.528;2023-08-06T19:41:05;7.43;;;1.70;;
64061;SDS011;50308;47.438;-1.528;2023-08-06T19:43:33;5.38;;;1.80;;
64061;SDS011;50308;47.438;-1.528;2023-08-06T19:45:59;6.20;;;1.73;;
64061;SDS011;50308;47.438;-1.528;2023-08-06T19:48:25;6.88;;;1.75;;
64061;SDS011;50308;47.438;-1.528;2023-08-06T19:50:54;6.93;;;1.80;;
64061;SDS011;50308;47.438;-1.528;2023-08-06T19:53:32;2.97;;;1.25;;
64061;SDS011;50308;47.438;-1.528;2023-08-06T19:55:59;8.00;;;1.80;;
64061;SDS011;50308;47.438;-1.528;2023-08-06T19:58:29;3.03;;;1.50;;
64061;SDS011;50308;47.438;-1.528;2023-08-06T20:00:56;6.55;;;1.48;;
64061;SDS011;50308;47.438;-1.528;2023-08-06T20:03:25;7.07;;;1.98;;
64061;SDS011;50308;47.438;-1.528;2023-08-06T20:05:51;2.88;;;1.58;;
64061;SDS011;50308;47.438;-1.528;2023-08-06T20:08:17;3.58;;;1.33;;
64061;SDS011;50308;47.438;-1.528;2023-08-06T20:10:44;4.18;;;1.60;;
64061;SDS011;50308;47.438;-1.528;2023-08-06T20:13:11;3.45;;;1.42;;
64061;SDS011;50308;47.438;-1.528;2023-08-06T20:15:37;6.75;;;1.75;;
64061;SDS011;50308;47.438;-1.528;2023-08-06T20:18:03;3.92;;;1.33;;
64061;SDS011;50308;47.438;-1.528;2023-08-06T20:20:29;5.35;;;1.23;;
64061;SDS011;50308;47.438;-1.528;2023-08-06T20:22:54;5.80;;;1.67;;
64061;SDS011;50308;47.438;-1.528;2023-08-06T20:25:20;4.20;;;1.52;;
64061;SDS011;50308;47.438;-1.528;2023-08-06T20:27:46;4.45;;;1.50;;
64061;SDS011;50308;47.438;-1.528;2023-08-06T20:30:11;6.35;;;1.40;;
64061;SDS011;50308;47.438;-1.528;2023-08-06T20:32:37;5.50;;;1.77;;
64061;SDS011;50308;47.438;-1.528;2023-08-06T20:35:03;5.40;;;2.22;;
64061;SDS011;50308;47.438;-1.528;2023-08-06T20:37:29;5.80;;;2.03;;
64061;SDS011;50308;47.438;-1.528;2023-08-06T20:39:55;5.45;;;1.30;;
64061;SDS011;50308;47.438;-1.528;2023-08-06T20:42:21;3.58;;;1.48;;
64061;SDS011;50308;47.438;-1.528;2023-08-06T20:44:46;2.88;;;1.60;;
64061;SDS011;50308;47.438;-1.528;2023-08-06T20:47:12;3.83;;;1.25;;
64061;SDS011;50308;47.438;-1.528;2023-08-06T20:49:38;4.30;;;1.52;;
64061;SDS011;50308;47.438;-1.528;2023-08-06T20:52:05;3.92;;;1.25;;
64061;SDS011;50308;47.438;-1.528;2023-08-06T20:54:31;3.85;;;1.40;;
64061;SDS011;50308;47.438;-1.528;2023-08-06T20:56:57;4.95;;;1.48;;
64061;SDS011;50308;47.438;-1.528;2023-08-06T20:59:22;4.10;;;1.52;;
64061;SDS011;50308;47.438;-1.528;2023-08-06T21:01:48;2.90;;;1.10;;
64061;SDS011;50308;47.438;-1.528;2023-08-06T21:04:14;3.40;;;1.23;;
64061;SDS011;50308;47.438;-1.528;2023-08-06T21:06:39;4.20;;;1.40;;
64061;SDS011;50308;47.438;-1.528;2023-08-06T21:09:05;2.13;;;1.25;;
64061;SDS011;50308;47.438;-1.528;2023-08-06T21:11:32;2.70;;;1.00;;
64061;SDS011;50308;47.438;-1.528;2023-08-06T21:13:58;4.47;;;1.23;;
64061;SDS011;50308;47.438;-1.528;2023-08-06T21:16:23;2.05;;;1.17;;
64061;SDS011;50308;47.438;-1.528;2023-08-06T21:18:49;1.70;;;1.00;;
64061;SDS011;50308;47.438;-1.528;2023-08-06T21:21:15;4.53;;;1.30;;
64061;SDS011;50308;47.438;-1.528;2023-08-06T21:23:40;2.88;;;1.17;;
64061;SDS011;50308;47.438;-1.528;2023-08-06T21:26:06;3.67;;;1.35;;
64061;SDS011;50308;47.438;-1.528;2023-08-06T21:28:33;3.38;;;1.05;;
64061;SDS011;50308;47.438;-1.528;2023-08-06T21:31:01;4.95;;;1.00;;
64061;SDS011;50308;47.438;-1.528;2023-08-06T21:33:29;2.80;;;1.10;;
64061;SDS011;50308;47.438;-1.528;2023-08-06T21:35:56;2.55;;;1.00;;
64061;SDS011;50308;47.438;-1.528;2023-08-06T21:38:26;4.00;;;1.10;;
64061;SDS011;50308;47.438;-1.528;2023-08-06T21:40:53;2.83;;;1.20;;
64061;SDS011;50308;47.438;-1.528;2023-08-06T21:43:20;2.85;;;0.90;;
64061;SDS011;50308;47.438;-1.528;2023-08-06T21:45:45;1.73;;;1.00;;
64061;SDS011;50308;47.438;-1.528;2023-08-06T21:48:11;3.25;;;1.20;;
64061;SDS011;50308;47.438;-1.528;2023-08-06T21:50:36;4.18;;;1.25;;
64061;SDS011;50308;47.438;-1.528;2023-08-06T21:53:02;3.20;;;1.30;;
64061;SDS011;50308;47.438;-1.528;2023-08-06T21:55:31;4.72;;;1.25;;
64061;SDS011;50308;47.438;-1.528;2023-08-06T21:57:57;3.50;;;1.13;;
64061;SDS011;50308;47.438;-1.528;2023-08-06T22:00:23;2.13;;;0.90;;
64061;SDS011;50308;47.438;-1.528;2023-08-06T22:02:48;2.47;;;0.95;;
64061;SDS011;50308;47.438;-1.528;2023-08-06T22:05:14;4.53;;;1.38;;
64061;SDS011;50308;47.438;-1.528;2023-08-06T22:07:40;2.53;;;0.80;;
64061;SDS011;50308;47.438;-1.528;2023-08-06T22:10:06;1.40;;;0.80;;
64061;SDS011;50308;47.438;-1.528;2023-08-06T22:12:32;3.15;;;0.75;;
64061;SDS011;50308;47.438;-1.528;2023-08-06T22:14:57;2.72;;;1.00;;
64061;SDS011;50308;47.438;-1.528;2023-08-06T22:17:23;2.38;;;1.10;;
64061;SDS011;50308;47.438;-1.528;2023-08-06T22:19:49;3.20;;;1.00;;
64061;SDS011;50308;47.438;-1.528;2023-08-06T22:22:14;2.30;;;1.00;;
64061;SDS011;50308;47.438;-1.528;2023-08-06T22:24:41;2.00;;;0.90;;
64061;SDS011;50308;47.438;-1.528;2023-08-06T22:27:06;3.15;;;0.95;;
64061;SDS011;50308;47.438;-1.528;2023-08-06T22:29:32;2.60;;;1.20;;
64061;SDS011;50308;47.438;-1.528;2023-08-06T22:31:58;2.05;;;1.00;;
64061;SDS011;50308;47.438;-1.528;2023-08-06T22:34:25;4.57;;;1.10;;
64061;SDS011;50308;47.438;-1.528;2023-08-06T22:36:51;4.85;;;1.33;;
64061;SDS011;50308;47.438;-1.528;2023-08-06T22:39:16;1.98;;;0.88;;
64061;SDS011;50308;47.438;-1.528;2023-08-06T22:41:42;1.63;;;0.80;;
64061;SDS011;50308;47.438;-1.528;2023-08-06T22:44:08;4.35;;;1.00;;
64061;SDS011;50308;47.438;-1.528;2023-08-06T22:46:34;3.75;;;1.05;;
64061;SDS011;50308;47.438;-1.528;2023-08-06T22:48:59;1.67;;;0.80;;
64061;SDS011;50308;47.438;-1.528;2023-08-06T22:51:25;1.70;;;1.10;;
64061;SDS011;50308;47.438;-1.528;2023-08-06T22:53:50;4.85;;;1.35;;
64061;SDS011;50308;47.438;-1.528;2023-08-06T22:56:16;2.55;;;1.05;;
64061;SDS011;50308;47.438;-1.528;2023-08-06T22:58:42;3.17;;;1.27;;
64061;SDS011;50308;47.438;-1.528;2023-08-06T23:01:07;1.45;;;0.90;;
64061;SDS011;50308;47.438;-1.528;2023-08-06T23:03:33;1.52;;;0.80;;
64061;SDS011;50308;47.438;-1.528;2023-08-06T23:05:59;2.97;;;1.10;;
64061;SDS011;50308;47.438;-1.528;2023-08-06T23:08:25;2.88;;;1.20;;
64061;SDS011;50308;47.438;-1.528;2023-08-06T23:10:50;2.85;;;1.20;;
64061;SDS011;50308;47.438;-1.528;2023-08-06T23:13:16;2.47;;;1.08;;
64061;SDS011;50308;47.438;-1.528;2023-08-06T23:15:42;2.22;;;1.00;;
64061;SDS011;50308;47.438;-1.528;2023-08-06T23:18:07;2.97;;;1.00;;
64061;SDS011;50308;47.438;-1.528;2023-08-06T23:20:33;2.63;;;1.40;;
64061;SDS011;50308;47.438;-1.528;2023-08-06T23:22:59;2.08;;;0.88;;
64061;SDS011;50308;47.438;-1.528;2023-08-06T23:25:24;1.58;;;0.90;;
64061;SDS011;50308;47.438;-1.528;2023-08-06T23:27:50;1.55;;;0.90;;
64061;SDS011;50308;47.438;-1.528;2023-08-06T23:30:16;2.00;;;1.00;;
64061;SDS011;50308;47.438;-1.528;2023-08-06T23:32:41;2.97;;;1.00;;
64061;SDS011;50308;47.438;-1.528;2023-08-06T23:35:07;2.75;;;0.95;;
64061;SDS011;50308;47.438;-1.528;2023-08-06T23:37:33;3.92;;;1.38;;
64061;SDS011;50308;47.438;-1.528;2023-08-06T23:39:59;2.15;;;1.08;;
64061;SDS011;50308;47.438;-1.528;2023-08-06T23:42:25;2.92;;;1.13;;
64061;SDS011;50308;47.438;-1.528;2023-08-06T23:44:51;3.15;;;1.00;;
64061;SDS011;50308;47.438;-1.528;2023-08-06T23:47:17;2.60;;;1.25;;
64061;SDS011;50308;47.438;-1.528;2023-08-06T23:49:43;2.05;;;1.08;;
64061;SDS011;50308;47.438;-1.528;2023-08-06T23:52:09;2.67;;;1.05;;
64061;SDS011;50308;47.438;-1.528;2023-08-06T23:54:35;3.35;;;0.90;;
64061;SDS011;50308;47.438;-1.528;2023-08-06T23:57:01;1.67;;;0.90;;
64061;SDS011;50308;47.438;-1.528;2023-08-06T23:59:27;1.60;;;1.00;;
